Time;durP1;ratioP1;P1;durP2;ratioP2;P2;SDS_P1;SDS_P2;PMS_P1;PMS_P2;Temp;Humidity;BMP_temperature;BMP_pressure;BME280_temperature;BME280_humidity;BME280_pressure;Samples;Min_cycle;Max_cycle;Signal;HPM_P1;HPM_P2
2022/06/06 00:01:50;;;;;;;12.40;8.93;;;16.10;99.90;;;;;;4909683;29;20140;-95
2022/06/06 00:04:18;;;;;;;11.98;9.25;;;16.00;99.90;;;;;;4877415;29;20086;-96
2022/06/06 00:06:44;;;;;;;14.57;10.20;;;16.00;99.90;;;;;;4888758;29;20701;-95
2022/06/06 00:09:15;;;;;;;14.65;8.68;;;16.00;99.90;;;;;;4895912;29;20060;-96
2022/06/06 00:11:42;;;;;;;12.90;9.80;;;16.00;99.90;;;;;;4919580;29;20055;-95
2022/06/06 00:14:09;;;;;;;14.90;9.73;;;16.00;99.90;;;;;;4879676;29;20384;-95
2022/06/06 00:16:35;;;;;;;15.68;9.70;;;16.00;99.90;;;;;;4904914;29;20147;-94
2022/06/06 00:19:03;;;;;;;13.13;10.10;;;16.00;99.90;;;;;;4897428;29;20052;-95
2022/06/06 00:21:30;;;;;;;16.50;10.77;;;16.00;99.90;;;;;;4895490;29;20071;-95
2022/06/06 00:23:59;;;;;;;12.10;9.85;;;16.00;99.90;;;;;;4896728;29;20048;-93
2022/06/06 00:26:28;;;;;;;12.07;9.27;;;16.00;99.90;;;;;;4906804;29;20530;-95
2022/06/06 00:28:54;;;;;;;16.42;10.60;;;16.00;99.90;;;;;;4891324;29;20056;-95
2022/06/06 00:36:56;;;;;;;14.88;11.07;;;16.00;99.90;;;;;;4909064;29;20044;-95
2022/06/06 00:39:22;;;;;;;16.33;11.27;;;16.00;99.90;;;;;;4894922;29;20499;-96
2022/06/06 00:41:50;;;;;;;15.40;10.90;;;15.90;99.90;;;;;;4907328;29;20056;-94
2022/06/06 00:44:20;;;;;;;18.65;11.02;;;15.90;99.90;;;;;;4870381;29;20078;-94
2022/06/06 00:47:13;;;;;;;21.35;11.98;;;15.90;99.90;;;;;;4881558;29;20108;-94
2022/06/06 00:49:54;;;;;;;14.82;10.35;;;15.90;99.90;;;;;;4903292;29;20045;-96
2022/06/06 00:52:28;;;;;;;17.55;10.27;;;15.90;99.90;;;;;;4892540;29;20072;-96
2022/06/06 00:54:58;;;;;;;18.80;10.50;;;15.90;99.90;;;;;;4861119;29;20184;-95
2022/06/06 00:57:31;;;;;;;18.00;9.55;;;15.80;99.90;;;;;;4870469;29;20143;-93
2022/06/06 01:00:00;;;;;;;16.50;9.50;;;15.80;99.90;;;;;;4914653;29;20560;-96
2022/06/06 01:02:26;;;;;;;21.25;10.02;;;15.70;99.90;;;;;;4870044;29;20084;-96
2022/06/06 01:04:53;;;;;;;15.25;10.05;;;15.70;99.90;;;;;;4887108;29;20488;-95
2022/06/06 01:07:20;;;;;;;20.55;9.88;;;15.70;99.90;;;;;;4870295;29;20056;-95
2022/06/06 01:09:46;;;;;;;17.02;9.73;;;15.60;99.90;;;;;;4905286;29;20070;-96
2022/06/06 01:12:17;;;;;;;15.98;8.80;;;15.60;99.90;;;;;;4876067;29;20048;-95
2022/06/06 01:14:50;;;;;;;16.52;9.07;;;15.50;99.90;;;;;;4884808;29;20052;-95
2022/06/06 01:17:21;;;;;;;14.00;7.82;;;15.50;99.90;;;;;;4881181;29;20044;-96
2022/06/06 01:20:13;;;;;;;12.90;7.85;;;15.40;99.90;;;;;;4904972;29;20053;-95
2022/06/06 01:22:49;;;;;;;16.98;8.45;;;15.40;99.90;;;;;;4918018;29;20455;-94
2022/06/06 01:25:33;;;;;;;18.50;9.75;;;15.30;99.90;;;;;;4915787;29;20071;-96
2022/06/06 01:28:33;;;;;;;19.77;9.35;;;15.30;99.90;;;;;;4900221;29;20052;-93
2022/06/06 01:31:03;;;;;;;13.25;9.55;;;15.20;99.90;;;;;;4872839;29;20131;-96
2022/06/06 01:33:48;;;;;;;16.67;9.20;;;15.10;99.90;;;;;;4886769;29;20048;-96
2022/06/06 01:36:14;;;;;;;15.35;8.75;;;15.10;99.90;;;;;;4888848;29;20040;-94
2022/06/06 01:38:40;;;;;;;15.90;8.95;;;15.00;99.90;;;;;;4880952;29;20068;-95
2022/06/06 01:41:09;;;;;;;17.13;9.20;;;15.00;99.90;;;;;;4887951;29;20072;-94
2022/06/06 01:43:50;;;;;;;17.20;8.95;;;15.00;99.90;;;;;;4868780;29;20402;-95
2022/06/06 01:46:30;;;;;;;14.48;9.27;;;14.90;99.90;;;;;;4904030;29;20095;-89
2022/06/06 01:48:57;;;;;;;16.30;8.88;;;14.90;99.90;;;;;;4881086;29;20044;-93
2022/06/06 01:51:29;;;;;;;12.77;8.93;;;14.80;99.90;;;;;;4913674;29;20493;-93
2022/06/06 01:53:56;;;;;;;15.18;9.02;;;14.80;99.90;;;;;;4882031;29;20049;-93
2022/06/06 01:56:26;;;;;;;15.93;9.32;;;14.80;99.90;;;;;;4882285;29;20049;-88
2022/06/06 01:58:52;;;;;;;17.38;9.77;;;14.70;99.90;;;;;;4881136;29;20072;-91
2022/06/06 02:01:18;;;;;;;14.68;8.73;;;14.70;99.90;;;;;;4913692;29;20045;-92
2022/06/06 02:03:44;;;;;;;15.45;8.40;;;14.70;99.90;;;;;;4881475;29;20048;-93
2022/06/06 02:06:11;;;;;;;15.82;7.70;;;14.60;99.90;;;;;;4882263;29;20045;-89
2022/06/06 02:08:37;;;;;;;19.60;7.95;;;14.60;99.90;;;;;;4880105;29;20389;-92
2022/06/06 02:11:03;;;;;;;15.05;7.20;;;14.60;99.90;;;;;;4882922;29;20044;-94
2022/06/06 02:13:29;;;;;;;12.35;7.63;;;14.50;99.90;;;;;;4881724;29;20132;-93
2022/06/06 02:15:55;;;;;;;13.07;7.38;;;14.80;99.90;;;;;;4897908;29;20093;-94
2022/06/06 02:18:22;;;;;;;15.13;7.85;;;14.40;99.90;;;;;;4896564;29;20397;-92
2022/06/06 02:20:48;;;;;;;13.43;6.80;;;14.40;99.90;;;;;;4898683;29;20057;-94
2022/06/06 02:23:14;;;;;;;13.13;6.35;;;14.30;99.90;;;;;;4880610;29;20055;-91
2022/06/06 02:25:41;;;;;;;12.10;6.10;;;14.30;99.90;;;;;;4890441;29;20087;-94
2022/06/06 02:28:07;;;;;;;10.32;5.65;;;14.30;99.90;;;;;;4907064;29;20048;-92
2022/06/06 02:30:35;;;;;;;9.10;5.53;;;14.20;99.90;;;;;;4934779;29;20048;-94
2022/06/06 02:33:01;;;;;;;12.50;5.60;;;14.30;99.90;;;;;;4912666;29;20096;-91
2022/06/06 02:35:34;;;;;;;11.23;5.32;;;14.20;99.90;;;;;;4900389;29;20052;-93
2022/06/06 02:38:00;;;;;;;10.75;5.75;;;14.20;99.90;;;;;;4916640;29;20104;-91
2022/06/06 02:40:28;;;;;;;9.23;5.25;;;14.20;99.90;;;;;;4901183;29;20114;-91
2022/06/06 02:42:54;;;;;;;9.45;5.05;;;14.10;99.90;;;;;;4902418;29;20045;-92
2022/06/06 02:45:21;;;;;;;10.55;5.10;;;14.20;99.90;;;;;;4904242;29;20433;-93
2022/06/06 02:47:50;;;;;;;9.75;5.50;;;14.10;99.90;;;;;;4918826;29;20044;-91
2022/06/06 02:50:21;;;;;;;10.13;5.60;;;14.10;99.90;;;;;;4920165;29;20049;-93
2022/06/06 02:52:46;;;;;;;9.35;5.38;;;14.10;99.90;;;;;;4903734;29;20064;-92
2022/06/06 02:55:14;;;;;;;6.55;4.43;;;14.10;99.90;;;;;;4888863;29;20548;-92
2022/06/06 02:57:42;;;;;;;8.18;4.80;;;14.10;99.90;;;;;;4902117;29;20045;-95
2022/06/06 03:00:11;;;;;;;7.65;4.32;;;14.10;99.90;;;;;;4904533;29;20083;-93
2022/06/06 03:02:36;;;;;;;8.43;4.78;;;14.00;99.90;;;;;;4904073;29;20041;-93
2022/06/06 03:05:04;;;;;;;6.43;4.95;;;14.00;99.90;;;;;;4905178;29;20087;-93
2022/06/06 03:07:35;;;;;;;8.23;5.05;;;14.00;99.90;;;;;;4902184;29;20123;-93
2022/06/06 03:10:16;;;;;;;7.60;5.13;;;14.00;99.90;;;;;;4888879;29;20099;-95
2022/06/06 03:13:10;;;;;;;11.13;5.32;;;14.00;99.90;;;;;;4887280;29;20055;-94
2022/06/06 03:22:15;;;;;;;11.02;5.00;;;14.00;99.90;;;;;;4904221;29;20052;-94
2022/06/06 03:25:02;;;;;;;7.20;4.90;;;13.90;99.90;;;;;;4904145;29;20084;-93
2022/06/06 03:27:59;;;;;;;8.00;5.05;;;14.10;99.90;;;;;;4902112;29;20059;-94
2022/06/06 03:30:48;;;;;;;8.75;5.75;;;13.90;99.90;;;;;;4904943;29;20056;-94
2022/06/06 03:33:14;;;;;;;8.85;5.43;;;13.90;99.90;;;;;;4894269;29;20052;-95
2022/06/06 03:35:51;;;;;;;8.43;6.10;;;13.90;99.90;;;;;;4902595;29;20056;-94
2022/06/06 03:38:37;;;;;;;9.00;6.45;;;13.90;99.90;;;;;;4900270;29;20056;-95
2022/06/06 03:41:18;;;;;;;6.50;4.95;;;14.00;99.90;;;;;;4919178;29;20060;-95
2022/06/06 03:44:09;;;;;;;9.93;5.72;;;14.00;99.90;;;;;;4902069;29;20056;-93
2022/06/06 03:47:03;;;;;;;7.78;5.75;;;14.00;99.90;;;;;;4913270;29;20080;-91
2022/06/06 03:49:47;;;;;;;11.13;6.57;;;14.00;99.90;;;;;;4906772;29;20048;-94
2022/06/06 03:52:37;;;;;;;8.00;5.85;;;14.00;99.90;;;;;;4905053;29;20067;-93
2022/06/06 03:55:17;;;;;;;10.80;6.50;;;14.00;99.90;;;;;;4905429;29;20045;-95
2022/06/06 03:57:45;;;;;;;8.57;6.43;;;13.90;99.90;;;;;;4887609;29;20049;-96
2022/06/06 04:00:14;;;;;;;10.02;6.47;;;13.90;99.90;;;;;;4904050;29;20049;-94
2022/06/06 04:02:42;;;;;;;7.57;6.20;;;13.90;99.90;;;;;;4903200;29;20049;-94
2022/06/06 04:05:13;;;;;;;9.82;6.85;;;13.90;99.90;;;;;;4903430;29;20052;-93
2022/06/06 04:07:39;;;;;;;7.00;5.82;;;13.90;99.90;;;;;;4902467;29;20049;-91
2022/06/06 04:10:06;;;;;;;8.18;6.25;;;13.90;99.90;;;;;;4903430;29;20096;-95
2022/06/06 04:12:49;;;;;;;8.38;6.28;;;13.90;99.90;;;;;;4902364;29;20091;-93
2022/06/06 04:15:36;;;;;;;10.38;6.05;;;14.00;99.90;;;;;;4887807;29;20092;-93
2022/06/06 04:18:32;;;;;;;10.35;6.20;;;13.90;99.90;;;;;;4886477;29;20044;-95
2022/06/06 04:21:24;;;;;;;6.07;5.47;;;13.90;99.90;;;;;;4903570;29;20497;-93
2022/06/06 04:23:49;;;;;;;;;;;13.90;99.90;;;;;;4902297;29;20049;-92
2022/06/06 04:26:26;;;;;;;5.97;5.38;;;13.90;99.90;;;;;;4922779;29;19930;-89
2022/06/06 04:28:55;;;;;;;9.57;5.97;;;13.90;99.90;;;;;;4887435;29;20073;-92
2022/06/06 04:31:51;;;;;;;9.45;5.82;;;13.90;99.90;;;;;;4902568;29;20127;-92
2022/06/06 04:34:35;;;;;;;8.75;5.13;;;13.90;99.90;;;;;;4901926;29;20139;-92
2022/06/06 04:37:30;;;;;;;7.63;5.43;;;13.90;99.90;;;;;;4902303;29;20053;-92
2022/06/06 04:40:16;;;;;;;9.68;5.60;;;13.90;99.90;;;;;;4903076;29;20572;-92
2022/06/06 04:42:55;;;;;;;9.35;5.85;;;13.90;99.90;;;;;;4900509;29;20155;-92
2022/06/06 04:45:28;;;;;;;9.18;5.47;;;13.90;99.90;;;;;;4903390;29;20048;-92
2022/06/06 04:47:56;;;;;;;6.90;5.15;;;13.90;99.90;;;;;;4901617;29;20119;-92
2022/06/06 04:50:22;;;;;;;6.97;5.45;;;13.90;99.90;;;;;;4901967;29;20049;-92
2022/06/06 04:52:59;;;;;;;8.60;5.30;;;13.90;99.90;;;;;;4901026;29;20116;-90
2022/06/06 04:55:27;;;;;;;7.72;4.80;;;13.90;99.90;;;;;;4902506;29;20048;-90
2022/06/06 04:57:55;;;;;;;6.43;4.78;;;13.90;99.90;;;;;;4900886;29;20477;-92
2022/06/06 05:00:23;;;;;;;7.20;4.93;;;13.90;99.90;;;;;;4902649;29;20481;-91
2022/06/06 05:02:49;;;;;;;4.32;3.92;;;13.90;99.90;;;;;;4901183;29;20069;-93
2022/06/06 05:05:15;;;;;;;5.57;4.20;;;13.90;99.90;;;;;;4886114;29;20064;-92
2022/06/06 05:08:02;;;;;;;3.28;2.88;;;13.90;99.90;;;;;;4885625;29;20080;-92
2022/06/06 05:10:53;;;;;;;3.95;2.33;;;14.00;99.90;;;;;;4886293;29;20055;-93
2022/06/06 05:13:39;;;;;;;3.38;2.10;;;13.90;99.90;;;;;;4885439;29;20052;-92
2022/06/06 05:16:39;;;;;;;5.15;2.60;;;13.90;99.90;;;;;;4901859;29;20079;-90
2022/06/06 05:19:27;;;;;;;4.07;2.95;;;13.90;99.90;;;;;;4901341;29;20057;-93
2022/06/06 05:22:11;;;;;;;5.18;3.45;;;13.90;99.90;;;;;;4885815;29;20052;-90
2022/06/06 05:24:49;;;;;;;7.85;4.28;;;13.90;99.90;;;;;;4904154;29;20103;-93
2022/06/06 05:27:30;;;;;;;7.05;4.68;;;13.80;99.90;;;;;;4918102;29;20052;-92
2022/06/06 05:30:07;;;;;;;7.30;5.33;;;13.80;99.90;;;;;;4902125;29;20055;-92
2022/06/06 05:32:45;;;;;;;6.70;5.22;;;13.80;99.90;;;;;;4901385;29;20077;-92
2022/06/06 05:35:16;;;;;;;6.03;5.20;;;13.80;99.90;;;;;;4885670;29;20049;-92
2022/06/06 05:37:51;;;;;;;7.13;5.38;;;13.80;99.90;;;;;;4885774;29;20052;-91
2022/06/06 05:40:16;;;;;;;6.63;5.22;;;13.80;99.90;;;;;;4885592;29;20044;-92
2022/06/06 05:43:14;;;;;;;8.40;5.82;;;13.70;99.90;;;;;;4884847;29;20060;-94
2022/06/06 05:46:37;;;;;;;7.72;5.55;;;13.70;99.90;;;;;;4901898;29;20363;-91
2022/06/06 05:49:33;;;;;;;10.27;6.00;;;13.70;99.90;;;;;;4878349;29;20052;-92
2022/06/06 05:52:19;;;;;;;11.75;7.18;;;13.70;99.90;;;;;;4900721;29;20069;-92
2022/06/06 05:55:23;;;;;;;12.73;7.55;;;13.60;99.90;;;;;;4898933;29;20060;-91
2022/06/06 05:57:51;;;;;;;13.77;7.78;;;13.60;99.90;;;;;;4906306;29;20116;-92
2022/06/06 06:00:37;;;;;;;14.75;8.27;;;13.60;99.90;;;;;;4919755;29;20072;-92
2022/06/06 06:03:30;;;;;;;16.95;8.40;;;13.60;99.90;;;;;;4919171;29;20059;-92
2022/06/06 06:06:04;;;;;;;13.63;7.05;;;13.60;99.90;;;;;;4920134;29;20052;-90
2022/06/06 06:09:01;;;;;;;9.98;6.53;;;13.50;99.90;;;;;;4907611;29;20045;-94
2022/06/06 06:11:30;;;;;;;13.43;7.20;;;13.50;99.90;;;;;;4901818;29;20048;-93
2022/06/06 06:14:24;;;;;;;10.73;6.57;;;13.50;99.90;;;;;;4900088;29;20058;-92
2022/06/06 06:16:55;;;;;;;10.52;6.18;;;13.50;99.90;;;;;;4899330;29;20048;-91
2022/06/06 06:19:27;;;;;;;10.30;6.05;;;13.50;99.90;;;;;;4899524;29;20044;-92
2022/06/06 06:21:58;;;;;;;9.38;5.82;;;13.50;99.90;;;;;;4901004;29;20083;-93
2022/06/06 06:24:28;;;;;;;9.80;5.80;;;13.50;99.90;;;;;;4900407;29;20135;-92
2022/06/06 06:26:58;;;;;;;10.98;6.15;;;13.50;99.90;;;;;;4916550;29;20542;-93
2022/06/06 06:29:24;;;;;;;10.32;5.95;;;13.50;99.90;;;;;;4899579;29;20056;-93
2022/06/06 06:32:11;;;;;;;8.38;5.53;;;13.50;99.90;;;;;;4916323;29;20059;-92
2022/06/06 06:34:51;;;;;;;11.35;5.57;;;13.40;99.90;;;;;;4903270;29;20056;-93
2022/06/06 06:37:36;;;;;;;11.65;6.00;;;13.40;99.90;;;;;;4919793;29;20044;-93
2022/06/06 06:40:23;;;;;;;11.85;6.38;;;13.40;99.90;;;;;;4919235;29;20047;-92
2022/06/06 06:43:26;;;;;;;9.85;6.07;;;13.40;99.90;;;;;;4919071;29;20078;-94
2022/06/06 06:46:00;;;;;;;9.10;5.93;;;13.40;99.90;;;;;;4919635;29;20060;-93
2022/06/06 06:48:45;;;;;;;9.43;5.55;;;13.40;99.90;;;;;;4907793;29;20144;-93
2022/06/06 06:51:34;;;;;;;9.68;4.65;;;13.40;99.90;;;;;;4900570;29;20055;-92
2022/06/06 06:54:52;;;;;;;7.80;4.15;;;13.40;99.90;;;;;;4900498;29;20493;-93
2022/06/06 06:57:20;;;;;;;6.13;3.67;;;13.40;99.90;;;;;;4890220;29;20473;-93
2022/06/06 06:59:58;;;;;;;4.38;3.13;;;13.50;99.90;;;;;;4900136;29;20044;-92
2022/06/06 07:08:33;;;;;;;5.28;2.50;;;13.50;99.90;;;;;;4898590;29;20470;-92
2022/06/06 07:11:21;;;;;;;5.22;2.50;;;13.50;99.90;;;;;;4900096;29;20048;-93
2022/06/06 07:13:59;;;;;;;4.75;2.80;;;13.50;99.90;;;;;;4913184;29;20490;-93
2022/06/06 07:16:47;;;;;;;4.43;2.60;;;13.60;99.90;;;;;;4918638;29;20063;-90
2022/06/06 07:19:18;;;;;;;5.47;3.05;;;13.70;99.90;;;;;;4901097;28;20060;-92
2022/06/06 07:21:46;;;;;;;5.88;2.50;;;13.70;99.90;;;;;;4899931;29;20049;-92
2022/06/06 07:24:20;;;;;;;4.28;2.42;;;13.70;99.90;;;;;;4899471;29;20073;-92
2022/06/06 07:26:47;;;;;;;4.47;2.95;;;13.80;99.90;;;;;;4899680;29;20124;-89
2022/06/06 07:29:16;;;;;;;6.43;3.03;;;13.80;99.90;;;;;;4902840;29;20489;-93
2022/06/06 07:32:11;;;;;;;6.00;3.00;;;13.80;99.90;;;;;;4887934;29;20067;-92
2022/06/06 07:34:52;;;;;;;6.32;2.92;;;13.80;99.90;;;;;;4887149;29;20485;-92
2022/06/06 07:37:47;;;;;;;5.45;3.13;;;13.80;99.90;;;;;;4887074;29;20049;-91
2022/06/06 07:40:42;;;;;;;6.13;2.92;;;13.80;99.90;;;;;;4903494;29;20091;-92
2022/06/06 07:43:17;;;;;;;5.57;2.92;;;13.80;99.90;;;;;;4903019;29;20056;-92
2022/06/06 07:45:50;;;;;;;6.93;2.90;;;13.80;99.90;;;;;;4903270;29;20084;-92
2022/06/06 07:48:23;;;;;;;7.80;2.78;;;13.80;99.90;;;;;;4901560;29;20052;-91
2022/06/06 07:51:03;;;;;;;5.43;2.53;;;13.80;99.90;;;;;;4903129;29;20058;-92
2022/06/06 07:53:58;;;;;;;4.82;2.65;;;13.90;99.90;;;;;;4901539;29;20060;-93
2022/06/06 07:56:32;;;;;;;3.95;2.28;;;13.90;99.90;;;;;;4904351;29;20056;-91
2022/06/06 07:59:26;;;;;;;7.82;3.28;;;13.90;99.90;;;;;;4901303;29;20139;-93
2022/06/06 08:02:12;;;;;;;6.13;2.72;;;13.60;99.90;;;;;;4904386;29;20044;-94
2022/06/06 08:05:12;;;;;;;5.40;2.70;;;14.10;99.90;;;;;;4905587;29;20500;-92
2022/06/06 08:07:55;;;;;;;7.57;2.97;;;14.10;99.90;;;;;;4920880;29;20178;-92
2022/06/06 08:10:55;;;;;;;5.70;2.95;;;14.30;99.90;;;;;;4938176;29;20052;-93
2022/06/06 08:13:32;;;;;;;5.78;2.85;;;14.30;99.90;;;;;;4908452;29;20457;-93
2022/06/06 08:16:37;;;;;;;5.05;2.72;;;14.50;99.90;;;;;;4922370;29;20048;-94
2022/06/06 08:19:25;;;;;;;4.63;2.35;;;14.60;99.90;;;;;;4896355;29;20044;-93
2022/06/06 08:21:51;;;;;;;7.95;3.03;;;14.70;99.90;;;;;;4905597;29;20067;-92
2022/06/06 08:24:33;;;;;;;5.00;2.70;;;14.70;99.90;;;;;;4920691;29;20045;-93
2022/06/06 08:27:01;;;;;;;6.80;2.67;;;14.80;99.90;;;;;;4905501;29;20104;-93
2022/06/06 08:29:28;;;;;;;7.05;2.97;;;14.80;99.90;;;;;;4920241;29;20048;-91
2022/06/06 08:31:54;;;;;;;6.38;2.70;;;14.80;99.90;;;;;;4921598;29;20056;-94
2022/06/06 08:34:21;;;;;;;6.47;2.58;;;14.80;99.90;;;;;;4904515;29;20187;-94
2022/06/06 08:37:05;;;;;;;4.15;2.15;;;14.80;99.90;;;;;;4921486;29;20040;-92
2022/06/06 08:39:37;;;;;;;3.40;2.03;;;14.90;99.90;;;;;;4920443;29;20059;-93
2022/06/06 08:42:29;;;;;;;6.53;2.05;;;14.90;99.90;;;;;;4921872;29;20059;-95
2022/06/06 08:45:07;;;;;;;;;;;15.00;99.90;;;;;;4921719;29;20110;-96
2022/06/06 08:47:41;;;;;;;5.47;2.10;;;14.90;99.90;;;;;;4916969;29;19923;-91
2022/06/06 08:50:45;;;;;;;3.55;2.35;;;14.90;99.90;;;;;;4904632;29;20079;-95
2022/06/06 08:53:33;;;;;;;3.08;2.45;;;14.90;99.90;;;;;;4910809;29;20060;-93
2022/06/06 08:56:17;;;;;;;3.50;2.30;;;14.80;99.90;;;;;;4920794;29;20056;-92
2022/06/06 08:59:08;;;;;;;4.32;2.60;;;14.80;99.90;;;;;;4903355;29;20044;-92
2022/06/06 09:01:43;;;;;;;3.42;2.67;;;14.80;99.90;;;;;;4906156;29;20048;-90
2022/06/06 09:04:48;;;;;;;4.75;2.75;;;14.70;99.90;;;;;;4905666;29;20048;-91
2022/06/06 09:07:35;;;;;;;5.22;2.85;;;14.70;99.90;;;;;;4914953;29;20053;-91
2022/06/06 09:10:26;;;;;;;5.13;3.65;;;14.20;99.90;;;;;;4890194;29;20462;-92
2022/06/06 09:12:51;;;;;;;6.23;3.47;;;14.50;99.90;;;;;;4887891;29;20045;-93
2022/06/06 09:15:42;;;;;;;7.35;3.88;;;14.50;99.90;;;;;;4887613;29;20063;-94
2022/06/06 09:18:08;;;;;;;8.48;4.05;;;14.50;99.90;;;;;;4901289;29;20041;-94
2022/06/06 09:20:59;;;;;;;9.30;4.78;;;14.50;99.90;;;;;;4886808;29;20151;-92
2022/06/06 09:23:40;;;;;;;8.85;5.15;;;14.60;99.90;;;;;;4882082;29;20054;-93
2022/06/06 09:26:08;;;;;;;6.72;4.50;;;14.70;99.90;;;;;;4886822;29;20057;-93
2022/06/06 09:29:31;;;;;;;7.13;4.57;;;14.80;99.90;;;;;;4886018;29;20052;-93
2022/06/06 09:32:00;;;;;;;9.70;4.68;;;14.90;99.90;;;;;;4903684;29;20052;-95
2022/06/06 09:34:48;;;;;;;7.13;3.38;;;15.00;99.90;;;;;;4886411;29;20048;-93
2022/06/06 09:37:34;;;;;;;6.55;3.50;;;15.00;99.90;;;;;;4886816;29;20075;-96
2022/06/06 09:40:29;;;;;;;11.65;3.78;;;15.20;99.90;;;;;;4902764;29;20381;-93
2022/06/06 09:43:08;;;;;;;5.88;3.10;;;15.30;99.90;;;;;;4897239;29;20048;-91
2022/06/06 09:46:01;;;;;;;8.63;3.42;;;15.50;99.90;;;;;;4901833;29;20094;-94
2022/06/06 09:48:52;;;;;;;5.38;3.25;;;15.60;99.90;;;;;;4901320;29;20056;-92
2022/06/06 09:51:56;;;;;;;8.07;3.00;;;15.60;99.90;;;;;;4901903;29;20045;-96
2022/06/06 10:01:08;;;;;;;7.57;2.92;;;15.90;99.90;;;;;;4902094;29;20044;-94
2022/06/06 10:04:19;;;;;;;6.10;2.55;;;15.90;99.90;;;;;;4900709;29;20473;-95
2022/06/06 10:07:13;;;;;;;8.10;2.90;;;16.00;99.90;;;;;;4886498;29;20044;-93
2022/06/06 10:10:20;;;;;;;9.18;2.70;;;16.10;99.90;;;;;;4884172;29;20044;-94
2022/06/06 10:13:07;;;;;;;6.30;2.42;;;16.20;99.90;;;;;;4899817;29;20048;-94
2022/06/06 10:15:44;;;;;;;7.05;2.38;;;16.20;99.90;;;;;;4900550;29;20048;-91
2022/06/06 10:18:25;;;;;;;4.90;1.90;;;16.30;99.90;;;;;;4899039;29;20083;-91
2022/06/06 10:21:29;;;;;;;10.73;1.90;;;16.40;99.90;;;;;;4900751;29;20053;-91
2022/06/06 10:24:31;;;;;;;8.30;1.80;;;16.50;99.90;;;;;;4882698;29;20048;-93
2022/06/06 10:27:19;;;;;;;6.85;2.30;;;16.60;99.90;;;;;;4900823;29;20060;-91
2022/06/06 10:30:12;;;;;;;6.97;1.17;;;16.70;99.90;;;;;;4890727;29;20045;-92
2022/06/06 10:32:56;;;;;;;6.40;1.38;;;16.60;99.90;;;;;;4898273;29;20048;-90
2022/06/06 10:35:44;;;;;;;4.95;1.40;;;16.80;99.90;;;;;;4900768;29;20103;-91
2022/06/06 10:38:32;;;;;;;4.28;1.20;;;16.90;99.90;;;;;;4899871;29;20585;-93
2022/06/06 10:41:24;;;;;;;4.60;1.10;;;16.90;99.90;;;;;;4885172;29;20100;-92
2022/06/06 10:44:04;;;;;;;4.25;1.08;;;17.00;99.90;;;;;;4891198;29;20071;-92
2022/06/06 10:46:39;;;;;;;4.22;0.90;;;17.10;99.90;;;;;;4884872;29;20041;-92
2022/06/06 10:49:12;;;;;;;4.43;0.90;;;17.10;99.90;;;;;;4883446;29;20260;-91
2022/06/06 10:51:49;;;;;;;8.52;0.85;;;17.20;99.90;;;;;;4885141;29;20044;-91
2022/06/06 10:55:13;;;;;;;5.55;1.20;;;17.20;99.90;;;;;;4883062;29;20064;-92
2022/06/06 10:57:57;;;;;;;5.22;1.30;;;17.20;99.90;;;;;;4864612;29;20055;-93
2022/06/06 11:00:46;;;;;;;3.00;0.90;;;17.20;99.90;;;;;;4884754;29;20097;-91
2022/06/06 11:03:33;;;;;;;;;;;;;;;;;;;;;
2022/06/06 11:06:47;;;;;;;4.63;0.98;;;17.20;99.90;;;;;;4903642;29;20053;-93
2022/06/06 11:09:53;;;;;;;4.50;1.17;;;17.00;99.90;;;;;;4909171;29;20041;-92
2022/06/06 11:12:24;;;;;;;7.72;1.48;;;17.00;99.90;;;;;;4894459;29;20107;-92
2022/06/06 11:14:53;;;;;;;5.28;0.95;;;17.10;99.90;;;;;;4887900;29;20048;-91
2022/06/06 11:17:39;;;;;;;4.38;1.13;;;17.20;99.90;;;;;;4901427;29;20500;-92
2022/06/06 11:20:39;;;;;;;4.45;1.00;;;17.20;99.90;;;;;;4903759;29;20048;-92
2022/06/06 11:23:33;;;;;;;5.53;0.90;;;17.40;99.90;;;;;;4892910;29;20489;-92
2022/06/06 11:26:33;;;;;;;;;;;17.20;99.90;;;;;;4899160;29;20068;-92
2022/06/06 11:29:27;;;;;;;7.00;0.90;;;17.30;99.90;;;;;;4889791;29;20371;-93
2022/06/06 11:32:15;;;;;;;;;;;17.40;99.90;;;;;;4922508;29;20412;-92
2022/06/06 11:34:57;;;;;;;6.45;1.00;;;17.50;99.90;;;;;;4877639;29;19998;-93
2022/06/06 11:37:43;;;;;;;6.25;1.00;;;17.70;99.90;;;;;;4903898;29;20075;-92
2022/06/06 11:40:54;;;;;;;4.72;0.85;;;17.80;99.90;;;;;;4903486;29;20083;-93
2022/06/06 11:44:04;;;;;;;2.53;0.68;;;17.80;99.90;;;;;;4911169;29;20088;-93
2022/06/06 11:46:57;;;;;;;4.28;0.93;;;17.80;99.90;;;;;;4938322;29;20055;-91
2022/06/06 11:50:00;;;;;;;3.78;1.00;;;17.70;99.90;;;;;;4919674;29;20476;-91
2022/06/06 11:52:57;;;;;;;4.82;0.80;;;17.60;99.90;;;;;;4917710;29;20053;-92
2022/06/06 11:55:58;;;;;;;5.00;0.80;;;17.60;99.90;;;;;;4887318;29;20453;-92
2022/06/06 11:59:11;;;;;;;7.15;1.25;;;17.60;99.90;;;;;;4878585;29;20069;-93
2022/06/06 12:01:49;;;;;;;6.55;1.10;;;17.40;99.90;;;;;;4921734;29;20079;-92
2022/06/06 12:04:34;;;;;;;5.22;1.02;;;17.40;99.90;;;;;;4886377;28;20053;-93
2022/06/06 12:07:41;;;;;;;6.47;1.17;;;17.10;99.90;;;;;;4902782;29;20143;-95
2022/06/06 12:10:32;;;;;;;5.13;1.10;;;17.30;99.90;;;;;;4901515;29;20067;-95
2022/06/06 12:13:50;;;;;;;4.30;1.05;;;17.40;99.90;;;;;;4899260;29;20048;-94
2022/06/06 12:16:59;;;;;;;;;;;;;;;;;;;;;
2022/06/06 12:23:43;;;;;;;;;;;;;;;;;;;;;
2022/06/06 12:27:19;;;;;;;4.88;1.20;;;17.40;99.90;;;;;;4829607;29;20054;-92
2022/06/06 12:30:35;;;;;;;;;;;;;;;;;;;;;
2022/06/06 12:33:38;;;;;;;6.57;0.95;;;17.30;99.90;;;;;;4877826;29;20060;-93
2022/06/06 12:43:38;;;;;;;4.22;0.88;;;17.20;99.90;;;;;;4881818;29;19926;-95
2022/06/06 12:49:41;;;;;;;4.27;0.83;;;17.40;99.90;;;;;;4865824;29;20076;-95
2022/06/06 12:52:33;;;;;;;5.28;1.23;;;17.30;99.90;;;;;;4860327;29;20049;-96
2022/06/06 12:56:17;;;;;;;2.35;1.13;;;17.40;99.90;;;;;;4885817;29;20135;-95
2022/06/06 12:58:50;;;;;;;5.15;1.30;;;17.20;99.90;;;;;;4883501;29;20055;-94
2022/06/06 13:01:42;;;;;;;2.65;1.55;;;17.10;99.90;;;;;;4870739;29;20049;-93
2022/06/06 13:04:48;;;;;;;3.40;1.35;;;17.00;99.90;;;;;;4868929;29;20060;-95
2022/06/06 13:07:38;;;;;;;4.82;1.50;;;16.90;99.90;;;;;;4860095;29;20088;-93
2022/06/06 13:10:17;;;;;;;4.90;1.70;;;16.70;99.90;;;;;;4869754;29;20111;-96
2022/06/06 13:13:17;;;;;;;;;;;;;;;;;;;;;
2022/06/06 13:15:56;;;;;;;5.97;1.90;;;16.30;99.90;;;;;;4885819;29;20087;-95
2022/06/06 13:18:49;;;;;;;4.22;1.33;;;16.10;99.90;;;;;;4867626;29;20132;-95
2022/06/06 13:21:59;;;;;;;4.85;1.88;;;16.00;99.90;;;;;;4869514;29;20059;-96
2022/06/06 13:24:51;;;;;;;3.83;1.90;;;15.60;99.90;;;;;;4854683;29;20112;-95
2022/06/06 13:27:40;;;;;;;5.20;1.85;;;15.90;99.90;;;;;;4889018;29;20200;-96
2022/06/06 13:30:28;;;;;;;5.82;1.75;;;15.90;99.90;;;;;;4922084;29;20142;-95
2022/06/06 13:33:35;;;;;;;4.82;2.30;;;15.80;99.90;;;;;;4908002;29;20213;-95
2022/06/06 13:36:27;;;;;;;5.15;1.92;;;15.70;99.90;;;;;;4920838;29;20063;-95
2022/06/06 13:42:57;;;;;;;4.35;2.22;;;15.50;99.90;;;;;;4909829;29;20135;-96
2022/06/06 13:45:46;;;;;;;5.22;2.70;;;15.50;99.90;;;;;;4878175;29;20059;-91
2022/06/06 13:48:44;;;;;;;9.93;2.72;;;15.40;99.90;;;;;;4895981;29;20051;-95
2022/06/06 13:51:39;;;;;;;5.90;2.65;;;15.30;99.90;;;;;;4920919;29;20080;-94
2022/06/06 13:54:07;;;;;;;6.60;2.85;;;15.30;99.90;;;;;;4911882;29;20088;-96
2022/06/06 13:56:41;;;;;;;6.57;3.17;;;15.30;99.90;;;;;;4905332;29;20052;-94
2022/06/06 13:59:32;;;;;;;3.67;2.60;;;15.20;99.90;;;;;;4903598;29;20120;-94
2022/06/06 14:02:14;;;;;;;7.55;2.75;;;15.10;99.90;;;;;;4920741;29;20052;-95
2022/06/06 14:04:57;;;;;;;5.38;2.53;;;15.00;99.90;;;;;;4903752;29;20052;-96
2022/06/06 14:07:37;;;;;;;4.90;2.63;;;15.10;99.90;;;;;;4920221;29;20051;-96
2022/06/06 14:10:17;;;;;;;6.82;2.92;;;15.00;99.90;;;;;;4921310;29;20126;-96
2022/06/06 14:12:46;;;;;;;4.57;2.67;;;14.80;99.90;;;;;;4904290;29;20103;-95
2022/06/06 14:15:15;;;;;;;3.70;2.75;;;14.80;99.90;;;;;;4921912;29;20071;-96
2022/06/06 14:17:49;;;;;;;4.90;3.08;;;14.80;99.90;;;;;;4924617;29;20037;-94
2022/06/06 14:20:37;;;;;;;4.25;2.80;;;14.60;99.90;;;;;;4921949;29;20044;-95
2022/06/06 14:23:30;;;;;;;6.47;3.53;;;14.60;99.90;;;;;;4920981;29;20120;-94
2022/06/06 14:26:04;;;;;;;4.65;3.50;;;14.60;99.90;;;;;;4921528;29;20037;-94
2022/06/06 14:28:39;;;;;;;3.63;3.08;;;14.60;99.90;;;;;;4896358;29;20064;-94
2022/06/06 14:31:27;;;;;;;6.05;3.63;;;14.60;99.90;;;;;;4919588;29;20052;-95
2022/06/06 14:33:59;;;;;;;4.63;2.80;;;14.60;99.90;;;;;;4911142;29;20434;-96
2022/06/06 14:36:27;;;;;;;6.95;3.45;;;14.50;99.90;;;;;;4905936;29;20048;-94
2022/06/06 14:39:37;;;;;;;6.15;2.75;;;14.50;99.90;;;;;;4903694;29;20056;-96
2022/06/06 14:42:03;;;;;;;4.55;3.13;;;14.50;99.90;;;;;;4910993;29;20051;-94
2022/06/06 14:44:35;;;;;;;4.35;2.10;;;14.50;99.90;;;;;;4905804;29;20055;-94
2022/06/06 14:47:16;;;;;;;6.70;2.70;;;14.50;99.90;;;;;;4928247;29;20056;-96
2022/06/06 14:50:45;;;;;;;5.30;2.05;;;14.50;99.90;;;;;;4908880;29;20045;-96